sensor_id;sensor_type;location;lat;lon;timestamp;pressure;altitude;pressure_sealevel;temperature;humidity
62122;BME280;48108;47.532;19.084;2023-05-25T03:51:16;100628.91;;;14.89;100.00
62122;BME280;48108;47.532;19.084;2023-05-25T03:54:20;100627.50;;;15.00;100.00
62122;BME280;48108;47.532;19.084;2023-05-25T03:57:23;100629.63;;;15.05;100.00
62122;BME280;48108;47.532;19.084;2023-05-25T04:00:26;100631.34;;;15.12;100.00
62122;BME280;48108;47.532;19.084;2023-05-25T04:03:29;100640.16;;;15.28;100.00
62122;BME280;48108;47.532;19.084;2023-05-25T04:06:34;100643.06;;;15.26;100.00
62122;BME280;48108;47.532;19.084;2023-05-25T04:09:39;100651.25;;;15.33;100.00
62122;BME280;48108;47.532;19.084;2023-05-25T04:12:42;100649.41;;;15.47;100.00
62122;BME280;48108;47.532;19.084;2023-05-25T04:15:45;100644.22;;;15.58;100.00
62122;BME280;48108;47.532;19.084;2023-05-25T04:18:48;100652.03;;;15.75;100.00
62122;BME280;48108;47.532;19.084;2023-05-25T04:21:51;100651.03;;;15.96;100.00
62122;BME280;48108;47.532;19.084;2023-05-25T04:24:54;100652.72;;;16.03;100.00
62122;BME280;48108;47.532;19.084;2023-05-25T04:27:57;100661.50;;;16.32;100.00
62122;BME280;48108;47.532;19.084;2023-05-25T04:31:01;100659.62;;;16.46;100.00
62122;BME280;48108;47.532;19.084;2023-05-25T04:34:05;100655.66;;;16.62;100.00
62122;BME280;48108;47.532;19.084;2023-05-25T04:37:12;100657.31;;;16.63;100.00
62122;BME280;48108;47.532;19.084;2023-05-25T04:40:15;100661.72;;;16.77;100.00
62122;BME280;48108;47.532;19.084;2023-05-25T04:43:18;100654.41;;;16.77;100.00
62122;BME280;48108;47.532;19.084;2023-05-25T04:46:22;100662.78;;;16.83;100.00
62122;BME280;48108;47.532;19.084;2023-05-25T04:49:25;100667.34;;;16.75;100.00
62122;BME280;48108;47.532;19.084;2023-05-25T04:52:28;100661.91;;;16.95;100.00
62122;BME280;48108;47.532;19.084;2023-05-25T04:55:31;100670.41;;;17.19;100.00
62122;BME280;48108;47.532;19.084;2023-05-25T04:58:34;100659.75;;;17.11;100.00
62122;BME280;48108;47.532;19.084;2023-05-25T05:01:37;100664.97;;;17.19;100.00
62122;BME280;48108;47.532;19.084;2023-05-25T05:04:43;100664.31;;;17.30;100.00
62122;BME280;48108;47.532;19.084;2023-05-25T05:07:46;100675.34;;;17.42;100.00
62122;BME280;48108;47.532;19.084;2023-05-25T05:10:49;100668.31;;;17.66;100.00
62122;BME280;48108;47.532;19.084;2023-05-25T05:13:53;100672.31;;;17.70;100.00
62122;BME280;48108;47.532;19.084;2023-05-25T05:16:56;100667.28;;;17.67;100.00
62122;BME280;48108;47.532;19.084;2023-05-25T05:19:59;100668.69;;;17.83;100.00
62122;BME280;48108;47.532;19.084;2023-05-25T05:23:03;100668.66;;;17.89;100.00
62122;BME280;48108;47.532;19.084;2023-05-25T05:26:05;100674.31;;;17.88;100.00
62122;BME280;48108;47.532;19.084;2023-05-25T05:29:12;100672.19;;;17.97;100.00
62122;BME280;48108;47.532;19.084;2023-05-25T05:32:15;100666.25;;;18.06;100.00
62122;BME280;48108;47.532;19.084;2023-05-25T05:35:18;100668.97;;;18.06;100.00
62122;BME280;48108;47.532;19.084;2023-05-25T05:38:21;100668.19;;;18.24;100.00
62122;BME280;48108;47.532;19.084;2023-05-25T05:41:25;100670.56;;;18.46;100.00
62122;BME280;48108;47.532;19.084;2023-05-25T05:44:28;100675.06;;;18.58;100.00
62122;BME280;48108;47.532;19.084;2023-05-25T05:47:32;100671.16;;;18.73;100.00
62122;BME280;48108;47.532;19.084;2023-05-25T05:50:38;100663.72;;;18.87;100.00
62122;BME280;48108;47.532;19.084;2023-05-25T05:53:44;100676.75;;;18.85;100.00
62122;BME280;48108;47.532;19.084;2023-05-25T05:56:46;100690.53;;;18.90;100.00
62122;BME280;48108;47.532;19.084;2023-05-25T05:59:49;100682.44;;;19.01;100.00
62122;BME280;48108;47.532;19.084;2023-05-25T06:02:53;100691.37;;;19.27;100.00
62122;BME280;48108;47.532;19.084;2023-05-25T06:05:57;100694.81;;;19.41;100.00
62122;BME280;48108;47.532;19.084;2023-05-25T06:09:00;100683.72;;;19.54;100.00
62122;BME280;48108;47.532;19.084;2023-05-25T06:12:05;100689.25;;;19.47;100.00
62122;BME280;48108;47.532;19.084;2023-05-25T06:15:08;100695.13;;;19.69;100.00
62122;BME280;48108;47.532;19.084;2023-05-25T06:18:12;100692.94;;;19.90;100.00
62122;BME280;48108;47.532;19.084;2023-05-25T06:21:15;100690.81;;;19.92;100.00
62122;BME280;48108;47.532;19.084;2023-05-25T06:24:18;100688.03;;;20.10;100.00
62122;BME280;48108;47.532;19.084;2023-05-25T06:27:21;100695.41;;;20.10;99.87
62122;BME280;48108;47.532;19.084;2023-05-25T06:30:25;100699.13;;;20.27;98.73
62122;BME280;48108;47.532;19.084;2023-05-25T06:33:27;100689.25;;;20.26;97.41
62122;BME280;48108;47.532;19.084;2023-05-25T06:36:30;100692.34;;;20.30;96.81
62122;BME280;48108;47.532;19.084;2023-05-25T06:39:34;100686.03;;;20.29;98.20
62122;BME280;48108;47.532;19.084;2023-05-25T06:42:37;100689.03;;;20.28;96.77
62122;BME280;48108;47.532;19.084;2023-05-25T06:45:57;100692.94;;;20.32;96.57
62122;BME280;48108;47.532;19.084;2023-05-25T06:49:01;100700.56;;;20.42;95.37
62122;BME280;48108;47.532;19.084;2023-05-25T06:52:04;100692.31;;;20.60;93.27
62122;BME280;48108;47.532;19.084;2023-05-25T06:55:10;100695.34;;;20.52;92.50
62122;BME280;48108;47.532;19.084;2023-05-25T06:58:12;100694.56;;;20.63;90.78
62122;BME280;48108;47.532;19.084;2023-05-25T07:01:15;100700.75;;;20.82;89.71
62122;BME280;48108;47.532;19.084;2023-05-25T07:04:18;100707.09;;;20.94;88.90
62122;BME280;48108;47.532;19.084;2023-05-25T07:07:21;100702.91;;;21.03;86.42
62122;BME280;48108;47.532;19.084;2023-05-25T07:10:24;100703.12;;;21.02;87.83
62122;BME280;48108;47.532;19.084;2023-05-25T07:13:27;100701.22;;;21.14;86.18
62122;BME280;48108;47.532;19.084;2023-05-25T07:16:30;100707.41;;;21.21;86.71
62122;BME280;48108;47.532;19.084;2023-05-25T07:19:33;100713.38;;;21.18;86.32
62122;BME280;48108;47.532;19.084;2023-05-25T07:22:36;100715.28;;;21.18;86.56
62122;BME280;48108;47.532;19.084;2023-05-25T07:25:39;100715.84;;;21.32;85.26
62122;BME280;48108;47.532;19.084;2023-05-25T07:28:43;100701.47;;;21.36;84.67
62122;BME280;48108;47.532;19.084;2023-05-25T07:31:46;100717.53;;;21.21;86.62
62122;BME280;48108;47.532;19.084;2023-05-25T07:34:49;100708.00;;;21.47;86.72
62122;BME280;48108;47.532;19.084;2023-05-25T07:37:56;100704.87;;;21.55;86.47
62122;BME280;48108;47.532;19.084;2023-05-25T07:40:59;100702.50;;;21.23;84.77
62122;BME280;48108;47.532;19.084;2023-05-25T07:44:03;100706.81;;;21.31;85.79
62122;BME280;48108;47.532;19.084;2023-05-25T07:47:06;100708.44;;;21.56;83.92
62122;BME280;48108;47.532;19.084;2023-05-25T07:50:09;100701.00;;;21.80;83.92
62122;BME280;48108;47.532;19.084;2023-05-25T07:53:12;100707.69;;;22.01;81.78
62122;BME280;48108;47.532;19.084;2023-05-25T07:56:15;100698.88;;;22.27;80.36
62122;BME280;48108;47.532;19.084;2023-05-25T07:59:18;100708.78;;;22.00;79.00
62122;BME280;48108;47.532;19.084;2023-05-25T08:02:21;100711.94;;;22.20;79.07
62122;BME280;48108;47.532;19.084;2023-05-25T08:05:25;100711.53;;;22.62;78.19
62122;BME280;48108;47.532;19.084;2023-05-25T08:08:27;100705.13;;;22.56;76.76
62122;BME280;48108;47.532;19.084;2023-05-25T08:11:30;100704.38;;;22.61;77.79
62122;BME280;48108;47.532;19.084;2023-05-25T08:14:33;100700.88;;;22.82;77.13
62122;BME280;48108;47.532;19.084;2023-05-25T08:17:36;100699.94;;;23.11;74.85
62122;BME280;48108;47.532;19.084;2023-05-25T08:20:39;100700.88;;;23.38;73.89
62122;BME280;48108;47.532;19.084;2023-05-25T08:23:42;100706.56;;;23.53;72.44
62122;BME280;48108;47.532;19.084;2023-05-25T08:26:45;100701.34;;;23.52;73.37
62122;BME280;48108;47.532;19.084;2023-05-25T08:29:56;100707.00;;;23.67;74.50
62122;BME280;48108;47.532;19.084;2023-05-25T08:32:59;100711.50;;;23.73;70.82
62122;BME280;48108;47.532;19.084;2023-05-25T08:36:02;100711.00;;;23.16;72.48
62122;BME280;48108;47.532;19.084;2023-05-25T08:39:05;100708.44;;;23.09;71.79
62122;BME280;48108;47.532;19.084;2023-05-25T08:42:10;100710.31;;;23.25;70.58
62122;BME280;48108;47.532;19.084;2023-05-25T08:45:13;100712.41;;;23.18;70.12
62122;BME280;48108;47.532;19.084;2023-05-25T08:48:36;100701.25;;;23.47;71.16
62122;BME280;48108;47.532;19.084;2023-05-25T08:51:48;100707.41;;;23.76;70.11
62122;BME280;48108;47.532;19.084;2023-05-25T08:54:54;100706.50;;;24.19;69.78
62122;BME280;48108;47.532;19.084;2023-05-25T08:58:01;100708.47;;;24.51;67.81
62122;BME280;48108;47.532;19.084;2023-05-25T09:01:11;100711.63;;;24.70;66.69
62122;BME280;48108;47.532;19.084;2023-05-25T09:04:15;100710.66;;;24.86;67.72
62122;BME280;48108;47.532;19.084;2023-05-25T09:07:21;100712.00;;;25.21;64.99
62122;BME280;48108;47.532;19.084;2023-05-25T09:10:26;100708.94;;;24.75;66.46
62122;BME280;48108;47.532;19.084;2023-05-25T09:13:29;100704.22;;;25.13;65.53
62122;BME280;48108;47.532;19.084;2023-05-25T09:16:32;100706.00;;;24.87;68.24
62122;BME280;48108;47.532;19.084;2023-05-25T09:19:35;100709.72;;;24.71;66.26
62122;BME280;48108;47.532;19.084;2023-05-25T09:22:40;100704.28;;;24.81;68.53
62122;BME280;48108;47.532;19.084;2023-05-25T09:25:45;100704.16;;;24.65;67.89
62122;BME280;48108;47.532;19.084;2023-05-25T09:28:47;100700.81;;;24.04;70.01
62122;BME280;48108;47.532;19.084;2023-05-25T09:31:51;100701.72;;;23.83;72.32
62122;BME280;48108;47.532;19.084;2023-05-25T09:34:53;100706.81;;;23.96;71.92
62122;BME280;48108;47.532;19.084;2023-05-25T09:37:59;100706.34;;;24.36;70.84
62122;BME280;48108;47.532;19.084;2023-05-25T09:41:02;100703.66;;;24.41;69.84
62122;BME280;48108;47.532;19.084;2023-05-25T09:44:06;100714.25;;;24.87;70.70
62122;BME280;48108;47.532;19.084;2023-05-25T09:47:13;100713.91;;;24.78;69.03
62122;BME280;48108;47.532;19.084;2023-05-25T09:50:18;100713.19;;;24.56;70.10
62122;BME280;48108;47.532;19.084;2023-05-25T09:53:21;100718.41;;;24.89;68.27
62122;BME280;48108;47.532;19.084;2023-05-25T09:56:25;100721.19;;;24.62;69.58
62122;BME280;48108;47.532;19.084;2023-05-25T09:59:29;100721.31;;;25.15;68.98
62122;BME280;48108;47.532;19.084;2023-05-25T10:02:32;100715.47;;;25.06;69.43
62122;BME280;48108;47.532;19.084;2023-05-25T10:05:35;100721.37;;;25.20;69.65
62122;BME280;48108;47.532;19.084;2023-05-25T10:08:38;100706.94;;;25.61;69.06
62122;BME280;48108;47.532;19.084;2023-05-25T10:11:42;100708.59;;;25.56;66.90
62122;BME280;48108;47.532;19.084;2023-05-25T10:14:47;100709.78;;;25.81;67.04
62122;BME280;48108;47.532;19.084;2023-05-25T10:17:53;100703.62;;;25.59;67.26
62122;BME280;48108;47.532;19.084;2023-05-25T10:21:02;100708.16;;;25.85;67.00
62122;BME280;48108;47.532;19.084;2023-05-25T10:24:15;100704.63;;;26.20;63.94
62122;BME280;48108;47.532;19.084;2023-05-25T10:27:22;100702.72;;;26.21;66.73
62122;BME280;48108;47.532;19.084;2023-05-25T10:30:30;100700.22;;;26.04;65.22
62122;BME280;48108;47.532;19.084;2023-05-25T10:33:34;100689.75;;;26.32;62.13
62122;BME280;48108;47.532;19.084;2023-05-25T10:36:37;100695.97;;;25.76;63.05
62122;BME280;48108;47.532;19.084;2023-05-25T10:39:41;100693.91;;;26.24;61.99
62122;BME280;48108;47.532;19.084;2023-05-25T10:42:45;100686.72;;;26.95;60.86
62122;BME280;48108;47.532;19.084;2023-05-25T10:45:48;100681.75;;;26.91;60.81
62122;BME280;48108;47.532;19.084;2023-05-25T10:48:51;100684.81;;;26.75;61.23
62122;BME280;48108;47.532;19.084;2023-05-25T10:51:58;100691.41;;;26.89;61.01
62122;BME280;48108;47.532;19.084;2023-05-25T10:55:01;100689.09;;;27.32;59.25
62122;BME280;48108;47.532;19.084;2023-05-25T10:58:12;100686.38;;;27.27;58.33
62122;BME280;48108;47.532;19.084;2023-05-25T11:01:15;100686.44;;;27.76;56.01
62122;BME280;48108;47.532;19.084;2023-05-25T11:04:18;100683.53;;;28.36;55.93
62122;BME280;48108;47.532;19.084;2023-05-25T11:07:21;100669.50;;;28.91;53.54
62122;BME280;48108;47.532;19.084;2023-05-25T11:10:45;100670.09;;;29.36;50.41
62122;BME280;48108;47.532;19.084;2023-05-25T11:13:52;100660.00;;;29.88;49.73
62122;BME280;48108;47.532;19.084;2023-05-25T11:20:21;100667.94;;;27.67;53.18
62122;BME280;48108;47.532;19.084;2023-05-25T11:23:27;100660.66;;;27.26;53.38
62122;BME280;48108;47.532;19.084;2023-05-25T11:26:33;100653.56;;;26.79;52.33
62122;BME280;48108;47.532;19.084;2023-05-25T11:29:36;100658.84;;;26.45;54.35
62122;BME280;48108;47.532;19.084;2023-05-25T11:32:47;100660.69;;;28.55;49.91
62122;BME280;48108;47.532;19.084;2023-05-25T11:35:53;100645.44;;;30.94;43.20
62122;BME280;48108;47.532;19.084;2023-05-25T11:38:57;100653.31;;;31.98;40.92
62122;BME280;48108;47.532;19.084;2023-05-25T11:42:11;100644.31;;;33.00;37.97
62122;BME280;48108;47.532;19.084;2023-05-25T11:45:14;100647.09;;;31.23;40.51
62122;BME280;48108;47.532;19.084;2023-05-25T11:48:17;100645.75;;;30.93;41.99
62122;BME280;48108;47.532;19.084;2023-05-25T11:51:23;100644.00;;;32.47;38.52
62122;BME280;48108;47.532;19.084;2023-05-25T11:54:27;100629.25;;;33.18;37.42
62122;BME280;48108;47.532;19.084;2023-05-25T11:57:30;100627.91;;;33.73;36.04
62122;BME280;48108;47.532;19.084;2023-05-25T12:00:33;100623.16;;;34.08;35.87
62122;BME280;48108;47.532;19.084;2023-05-25T12:03:36;100623.75;;;31.74;38.53
62122;BME280;48108;47.532;19.084;2023-05-25T12:06:39;100621.22;;;32.77;37.24
62122;BME280;48108;47.532;19.084;2023-05-25T12:09:42;100611.03;;;33.12;36.26
62122;BME280;48108;47.532;19.084;2023-05-25T12:12:48;100616.16;;;34.49;34.34
62122;BME280;48108;47.532;19.084;2023-05-25T12:15:54;100609.25;;;35.95;31.34
62122;BME280;48108;47.532;19.084;2023-05-25T12:18:59;100611.53;;;37.82;29.14
62122;BME280;48108;47.532;19.084;2023-05-25T12:22:03;100609.56;;;38.10;27.79
62122;BME280;48108;47.532;19.084;2023-05-25T12:25:08;100602.66;;;38.08;27.44
62122;BME280;48108;47.532;19.084;2023-05-25T12:28:14;100591.97;;;38.58;26.85
62122;BME280;48108;47.532;19.084;2023-05-25T12:31:30;100597.59;;;38.58;26.59
62122;BME280;48108;47.532;19.084;2023-05-25T12:34:35;100593.63;;;39.26;26.16
62122;BME280;48108;47.532;19.084;2023-05-25T12:37:38;100597.06;;;38.52;26.36
62122;BME280;48108;47.532;19.084;2023-05-25T12:40:41;100599.50;;;39.01;25.65
62122;BME280;48108;47.532;19.084;2023-05-25T12:43:44;100599.16;;;39.93;24.47
62122;BME280;48108;47.532;19.084;2023-05-25T12:46:48;100586.47;;;40.91;23.30
62122;BME280;48108;47.532;19.084;2023-05-25T12:49:53;100595.63;;;40.38;24.61
62122;BME280;48108;47.532;19.084;2023-05-25T12:53:00;100602.31;;;38.09;26.52
62122;BME280;48108;47.532;19.084;2023-05-25T12:56:03;100594.81;;;37.08;27.77
62122;BME280;48108;47.532;19.084;2023-05-25T12:59:13;100590.41;;;36.49;28.65
62122;BME280;48108;47.532;19.084;2023-05-25T13:02:16;100588.31;;;34.14;31.87
62122;BME280;48108;47.532;19.084;2023-05-25T13:05:21;100586.06;;;31.54;36.22
62122;BME280;48108;47.532;19.084;2023-05-25T13:08:24;100583.53;;;31.03;37.81
62122;BME280;48108;47.532;19.084;2023-05-25T13:11:27;100577.47;;;32.32;35.60
62122;BME280;48108;47.532;19.084;2023-05-25T13:14:30;100572.06;;;33.73;33.34
62122;BME280;48108;47.532;19.084;2023-05-25T13:17:33;100569.88;;;34.04;32.59
62122;BME280;48108;47.532;19.084;2023-05-25T13:20:37;100565.22;;;35.62;29.94
62122;BME280;48108;47.532;19.084;2023-05-25T13:23:40;100568.59;;;32.92;33.82
62122;BME280;48108;47.532;19.084;2023-05-25T13:26:43;100563.25;;;31.89;35.52
62122;BME280;48108;47.532;19.084;2023-05-25T13:29:49;100553.41;;;34.76;31.38
62122;BME280;48108;47.532;19.084;2023-05-25T13:32:51;100548.06;;;36.18;29.38
62122;BME280;48108;47.532;19.084;2023-05-25T13:35:54;100554.91;;;37.15;28.54
62122;BME280;48108;47.532;19.084;2023-05-25T13:39:01;100555.34;;;37.54;27.92
62122;BME280;48108;47.532;19.084;2023-05-25T13:42:06;100542.78;;;39.18;26.08
62122;BME280;48108;47.532;19.084;2023-05-25T13:45:29;100527.88;;;38.67;26.95
62122;BME280;48108;47.532;19.084;2023-05-25T13:48:52;100522.41;;;39.25;26.40
62122;BME280;48108;47.532;19.084;2023-05-25T13:52:15;100528.34;;;38.69;26.13
62122;BME280;48108;47.532;19.084;2023-05-25T13:55:38;100525.44;;;38.33;25.58
62122;BME280;48108;47.532;19.084;2023-05-25T13:58:41;100510.25;;;36.97;27.94
62122;BME280;48108;47.532;19.084;2023-05-25T14:01:44;100516.59;;;36.70;28.42
62122;BME280;48108;47.532;19.084;2023-05-25T14:04:48;100508.69;;;34.97;30.91
62122;BME280;48108;47.532;19.084;2023-05-25T14:07:51;100510.09;;;33.36;32.86
62122;BME280;48108;47.532;19.084;2023-05-25T14:10:56;100508.37;;;32.12;34.88
62122;BME280;48108;47.532;19.084;2023-05-25T14:13:58;100516.19;;;30.37;37.96
62122;BME280;48108;47.532;19.084;2023-05-25T14:17:02;100515.59;;;29.36;40.82
62122;BME280;48108;47.532;19.084;2023-05-25T14:20:05;100518.50;;;28.11;44.23
62122;BME280;48108;47.532;19.084;2023-05-25T14:23:08;100514.56;;;27.88;45.89
62122;BME280;48108;47.532;19.084;2023-05-25T14:26:15;100510.50;;;28.04;45.16
62122;BME280;48108;47.532;19.084;2023-05-25T14:29:18;100512.25;;;27.95;45.30
62122;BME280;48108;47.532;19.084;2023-05-25T14:32:20;100513.84;;;28.01;44.96
62122;BME280;48108;47.532;19.084;2023-05-25T14:35:23;100503.22;;;28.14;44.62
62122;BME280;48108;47.532;19.084;2023-05-25T14:38:26;100509.88;;;28.13;44.66
62122;BME280;48108;47.532;19.084;2023-05-25T14:41:29;100505.72;;;27.47;46.13
62122;BME280;48108;47.532;19.084;2023-05-25T14:44:32;100509.50;;;27.17;47.11
62122;BME280;48108;47.532;19.084;2023-05-25T14:47:35;100494.81;;;27.21;47.32
62122;BME280;48108;47.532;19.084;2023-05-25T14:50:38;100497.44;;;26.97;48.98
62122;BME280;48108;47.532;19.084;2023-05-25T14:53:42;100491.81;;;27.18;49.03
62122;BME280;48108;47.532;19.084;2023-05-25T14:56:45;100491.75;;;27.23;47.88
62122;BME280;48108;47.532;19.084;2023-05-25T14:59:48;100506.09;;;27.30;49.46
62122;BME280;48108;47.532;19.084;2023-05-25T15:02:51;100506.69;;;27.27;49.02
62122;BME280;48108;47.532;19.084;2023-05-25T15:05:54;100495.41;;;27.08;49.34
62122;BME280;48108;47.532;19.084;2023-05-25T15:08:57;100490.19;;;27.06;49.84
62122;BME280;48108;47.532;19.084;2023-05-25T15:12:00;100485.97;;;27.24;49.70
62122;BME280;48108;47.532;19.084;2023-05-25T15:15:03;100491.50;;;27.24;49.65
62122;BME280;48108;47.532;19.084;2023-05-25T15:18:06;100493.19;;;27.10;51.04
62122;BME280;48108;47.532;19.084;2023-05-25T15:21:09;100488.34;;;26.86;50.86
62122;BME280;48108;47.532;19.084;2023-05-25T15:24:12;100474.37;;;26.62;50.34
62122;BME280;48108;47.532;19.084;2023-05-25T15:27:18;100487.41;;;26.41;50.42
62122;BME280;48108;47.532;19.084;2023-05-25T15:30:21;100491.28;;;26.30;50.97
62122;BME280;48108;47.532;19.084;2023-05-25T15:33:24;100489.69;;;26.04;53.01
62122;BME280;48108;47.532;19.084;2023-05-25T15:36:45;100480.59;;;25.98;53.95
62122;BME280;48108;47.532;19.084;2023-05-25T15:39:48;100482.25;;;25.84;54.23
62122;BME280;48108;47.532;19.084;2023-05-25T15:42:51;100472.00;;;25.79;55.14
62122;BME280;48108;47.532;19.084;2023-05-25T15:45:54;100481.41;;;25.88;54.91
62122;BME280;48108;47.532;19.084;2023-05-25T15:48:57;100482.50;;;25.72;54.91
62122;BME280;48108;47.532;19.084;2023-05-25T15:51:59;100477.56;;;25.69;54.97
62122;BME280;48108;47.532;19.084;2023-05-25T15:55:03;100481.69;;;25.51;55.11
62122;BME280;48108;47.532;19.084;2023-05-25T15:58:05;100480.56;;;25.52;54.92
